Time;durP1;ratioP1;P1;durP2;ratioP2;P2;SDS_P1;SDS_P2;PMS_P1;PMS_P2;Temp;Humidity;BMP_temperature;BMP_pressure;BME280_temperature;BME280_humidity;BME280_pressure;Samples;Min_cycle;Max_cycle;Signal;HPM_P1;HPM_P2
2022/03/01 00:01:05;;;;;;;34.47;11.40;;;;;;;-0.42;44.68;102917.09;4993586;28;20509;-72
2022/03/01 00:03:30;;;;;;;27.40;9.85;;;;;;;-0.56;45.22;102917.44;4975203;28;20037;-71
2022/03/01 00:05:56;;;;;;;28.65;10.80;;;;;;;-0.57;44.73;102912.25;4990940;28;20508;-74
2022/03/01 00:08:22;;;;;;;19.67;8.98;;;;;;;-0.74;45.38;102908.16;4961964;28;20033;-73
2022/03/01 00:10:47;;;;;;;25.80;9.95;;;;;;;-0.48;44.61;102909.16;4974826;28;20040;-74
2022/03/01 00:13:12;;;;;;;28.50;10.50;;;;;;;-1.01;45.31;102898.53;4969305;28;20076;-73
2022/03/01 00:15:38;;;;;;;31.23;10.43;;;;;;;-0.76;45.32;102895.25;4974922;28;20117;-72
2022/03/01 00:18:04;;;;;;;31.00;10.98;;;;;;;-0.62;44.80;102893.22;4976299;28;20326;-72
2022/03/01 00:20:29;;;;;;;28.35;9.82;;;;;;;-0.67;44.86;102890.47;4992106;28;20037;-71
2022/03/01 00:22:54;;;;;;;28.40;10.77;;;;;;;-0.39;43.92;102899.25;4972614;28;20438;-72
2022/03/01 00:25:20;;;;;;;30.08;10.05;;;;;;;-0.48;44.23;102901.44;4989471;28;20288;-72
2022/03/01 00:27:45;;;;;;;27.95;10.25;;;;;;;-0.39;43.83;102901.81;4986412;28;20046;-71
2022/03/01 00:30:11;;;;;;;27.75;10.88;;;;;;;-0.42;44.32;102911.97;4975298;28;20095;-73
2022/03/01 00:32:37;;;;;;;31.00;9.77;;;;;;;-0.62;44.31;102909.47;4971361;28;20038;-72
2022/03/01 00:35:03;;;;;;;26.38;9.90;;;;;;;-0.68;44.30;102911.84;4976721;28;20383;-72
2022/03/01 00:37:28;;;;;;;30.45;11.00;;;;;;;-0.46;43.94;102913.56;4988848;28;21599;-72
2022/03/01 00:39:54;;;;;;;34.92;11.35;;;;;;;-0.56;43.85;102914.88;4987036;28;20087;-71
2022/03/01 00:42:19;;;;;;;28.90;8.43;;;;;;;-0.64;43.93;102908.59;4988650;28;20411;-73
2022/03/01 00:44:45;;;;;;;30.70;9.48;;;;;;;-0.61;43.95;102908.69;4973702;28;20035;-71
2022/03/01 00:47:10;;;;;;;30.15;9.85;;;;;;;-0.62;43.83;102909.47;4989538;28;20034;-70
2022/03/01 00:49:35;;;;;;;33.45;11.25;;;;;;;-0.47;43.46;102909.22;4988290;28;20394;-70
2022/03/01 00:52:01;;;;;;;30.15;10.55;;;;;;;-0.59;43.46;102908.75;4990204;28;20664;-70
2022/03/01 00:54:27;;;;;;;28.02;9.35;;;;;;;-0.50;43.05;102914.25;4987489;28;20418;-70
2022/03/01 00:56:53;;;;;;;26.65;10.02;;;;;;;-0.60;43.51;102914.69;4972737;28;20358;-72
2022/03/01 00:59:18;;;;;;;25.25;9.35;;;;;;;-0.65;43.55;102909.38;4987272;28;20044;-72
2022/03/01 01:01:43;;;;;;;29.35;9.63;;;;;;;-0.54;43.18;102906.38;4987595;28;20061;-72
2022/03/01 01:04:09;;;;;;;23.52;9.10;;;;;;;-0.51;43.29;102917.63;4971041;28;20044;-72
2022/03/01 01:06:34;;;;;;;22.92;9.18;;;;;;;-0.60;43.48;102910.44;4990318;28;20585;-73
2022/03/01 01:09:00;;;;;;;30.52;10.73;;;;;;;-0.79;43.69;102910.53;4974234;28;20736;-71
2022/03/01 01:11:25;;;;;;;31.92;10.45;;;;;;;-0.61;43.04;102913.81;4974826;28;20694;-73
2022/03/01 01:13:51;;;;;;;29.38;9.98;;;;;;;-0.69;43.27;102912.63;4985662;28;20091;-72
2022/03/01 01:16:16;;;;;;;23.10;9.18;;;;;;;-0.67;42.99;102910.13;4988795;28;20033;-72
2022/03/01 01:18:45;;;;;;;28.38;9.65;;;;;;;-0.64;42.91;102910.25;4987106;28;20848;-70
2022/03/01 01:21:12;;;;;;;28.48;9.68;;;;;;;-0.71;43.25;102914.25;4989413;28;20038;-71
2022/03/01 01:23:38;;;;;;;27.45;9.85;;;;;;;-0.65;43.14;102926.50;4988176;28;20042;-71
2022/03/01 01:26:04;;;;;;;26.30;8.13;;;;;;;-0.69;43.03;102920.34;4988586;28;20517;-72
2022/03/01 01:28:29;;;;;;;26.50;9.80;;;;;;;-0.73;42.99;102918.47;4990677;28;20037;-71
2022/03/01 01:30:54;;;;;;;28.08;8.73;;;;;;;-0.64;42.94;102910.25;4986911;28;20062;-71
2022/03/01 01:33:20;;;;;;;26.30;9.73;;;;;;;-0.81;43.31;102918.16;4989368;28;20038;-71
2022/03/01 01:35:45;;;;;;;31.17;9.98;;;;;;;-0.90;43.34;102919.50;4974439;28;20207;-71
2022/03/01 01:38:11;;;;;;;23.25;8.90;;;;;;;-0.73;42.71;102918.47;4990812;28;20689;-71
2022/03/01 01:40:36;;;;;;;22.90;8.88;;;;;;;-0.78;43.08;102914.84;4987469;28;20523;-71
2022/03/01 01:43:04;;;;;;;25.75;8.43;;;;;;;-0.71;42.69;102914.25;4990527;28;20069;-71
2022/03/01 01:45:30;;;;;;;24.27;9.77;;;;;;;-0.87;43.11;102907.66;4994570;28;20037;-70
2022/03/01 01:48:00;;;;;;;20.52;8.57;;;;;;;-0.77;43.03;102906.34;4992719;28;20292;-71
2022/03/01 01:50:31;;;;;;;22.77;9.35;;;;;;;-0.81;42.64;102912.16;4977496;28;20037;-71
2022/03/01 01:52:57;;;;;;;20.23;8.82;;;;;;;-0.94;43.25;102904.78;4975764;28;20390;-72
2022/03/01 01:55:26;;;;;;;26.27;8.85;;;;;;;-1.07;43.74;102904.25;4992070;28;20038;-72
2022/03/01 01:57:51;;;;;;;26.27;9.18;;;;;;;-1.08;43.63;102909.34;4959242;28;20212;-71
2022/03/01 02:00:17;;;;;;;26.35;10.52;;;;;;;-1.29;44.24;102901.59;4977857;28;20034;-72
2022/03/01 02:02:44;;;;;;;30.45;9.57;;;;;;;-1.24;44.03;102905.22;4983695;28;20565;-72
2022/03/01 02:05:10;;;;;;;29.17;9.70;;;;;;;-1.29;44.37;102894.78;4998817;28;20511;-70
2022/03/01 02:07:36;;;;;;;25.63;8.68;;;;;;;-1.42;44.68;102895.97;4978008;28;20467;-72
2022/03/01 02:10:03;;;;;;;27.63;9.48;;;;;;;-1.45;44.59;102897.50;4990204;28;20021;-72
2022/03/01 02:12:28;;;;;;;28.23;10.27;;;;;;;-1.52;44.91;102893.81;4963810;28;20044;-73
2022/03/01 02:14:54;;;;;;;25.70;9.60;;;;;;;-1.30;44.15;102899.88;4999385;28;20029;-73
2022/03/01 02:17:20;;;;;;;25.20;9.05;;;;;;;-1.35;44.20;102894.53;4996965;28;20050;-71
2022/03/01 02:19:50;;;;;;;25.90;8.13;;;;;;;-1.41;44.35;102891.72;4997688;28;20069;-71
2022/03/01 02:22:16;;;;;;;29.10;11.73;;;;;;;-1.47;44.56;102892.31;4992963;28;20038;-71
2022/03/01 02:24:42;;;;;;;30.52;8.93;;;;;;;-1.45;44.51;102887.25;4998453;28;20026;-72
2022/03/01 02:27:07;;;;;;;22.23;7.75;;;;;;;-1.47;44.59;102886.31;4996922;28;20052;-71
2022/03/01 02:29:33;;;;;;;25.58;9.02;;;;;;;-1.55;44.75;102886.00;4994739;28;20629;-70
2022/03/01 02:32:03;;;;;;;23.85;7.78;;;;;;;-1.42;44.13;102879.69;4986589;28;20682;-70
2022/03/01 02:34:30;;;;;;;24.63;8.25;;;;;;;-1.40;44.15;102880.63;5000518;28;20037;-70
2022/03/01 02:36:56;;;;;;;31.45;10.75;;;;;;;-1.44;44.14;102881.31;4955441;28;20030;-70
2022/03/01 02:39:21;;;;;;;24.98;9.07;;;;;;;-1.46;44.21;102878.69;4994880;28;20125;-70
2022/03/01 02:41:47;;;;;;;28.08;9.73;;;;;;;-1.51;44.38;102875.06;4998144;28;20034;-70
2022/03/01 02:44:13;;;;;;;26.20;9.20;;;;;;;-1.62;44.54;102876.25;4995772;28;20554;-70
2022/03/01 02:46:39;;;;;;;28.83;8.25;;;;;;;-1.51;44.61;102869.94;4996866;28;20037;-70
2022/03/01 02:49:07;;;;;;;22.42;9.32;;;;;;;-1.57;44.35;102873.94;4979838;28;20041;-71
2022/03/01 02:51:33;;;;;;;27.80;9.02;;;;;;;-1.62;44.70;102872.03;4996573;28;20034;-70
2022/03/01 02:53:58;;;;;;;24.17;8.80;;;;;;;-1.58;44.28;102867.91;4997130;28;20730;-70
2022/03/01 02:56:24;;;;;;;26.40;8.27;;;;;;;-1.59;44.29;102871.28;4972644;28;20040;-70
2022/03/01 02:58:49;;;;;;;29.75;9.27;;;;;;;-1.49;43.92;102862.28;4977560;28;20036;-72
2022/03/01 03:01:15;;;;;;;30.02;8.85;;;;;;;-1.59;44.51;102868.72;4999470;28;20287;-72
2022/03/01 03:03:41;;;;;;;23.40;8.90;;;;;;;-1.56;44.21;102866.28;4980352;28;20476;-73
2022/03/01 03:06:06;;;;;;;25.98;8.73;;;;;;;-1.59;44.42;102872.16;4981249;28;20026;-72
2022/03/01 03:08:32;;;;;;;31.67;9.93;;;;;;;-1.57;44.27;102869.66;4969418;28;20033;-74
2022/03/01 03:10:58;;;;;;;23.63;8.90;;;;;;;-1.62;44.30;102863.44;4995838;28;20029;-74
2022/03/01 03:13:24;;;;;;;27.95;9.05;;;;;;;-1.66;44.44;102866.72;4967406;28;20035;-74
2022/03/01 03:15:50;;;;;;;26.75;9.07;;;;;;;-1.61;44.11;102863.53;4979412;28;20609;-73
2022/03/01 03:18:17;;;;;;;27.90;9.20;;;;;;;-1.60;44.11;102855.03;4998507;28;20052;-72
2022/03/01 03:20:42;;;;;;;23.23;8.52;;;;;;;-1.61;44.36;102867.78;4977597;28;20042;-72
2022/03/01 03:23:09;;;;;;;21.50;8.80;;;;;;;-1.64;44.30;102867.66;4997000;28;20048;-69
2022/03/01 03:25:35;;;;;;;16.67;8.50;;;;;;;-1.63;44.17;102854.88;4993794;28;20318;-69
2022/03/01 03:28:00;;;;;;;30.83;10.95;;;;;;;-1.63;44.33;102861.72;4979825;28;20041;-69
2022/03/01 03:30:26;;;;;;;25.63;7.90;;;;;;;-1.69;44.33;102864.88;4977226;28;20465;-71
2022/03/01 03:32:52;;;;;;;22.67;8.98;;;;;;;-1.71;44.44;102868.19;4993655;28;20096;-69
2022/03/01 03:35:18;;;;;;;25.98;8.75;;;;;;;-1.84;44.80;102865.09;4996798;28;20042;-69
2022/03/01 03:37:43;;;;;;;24.23;9.23;;;;;;;-1.75;44.74;102867.19;4995109;28;20052;-69
2022/03/01 03:40:09;;;;;;;21.25;8.35;;;;;;;-1.83;44.55;102861.72;4997186;28;20449;-69
2022/03/01 03:42:35;;;;;;;26.88;9.82;;;;;;;-1.78;44.69;102866.19;4978203;28;20161;-70
2022/03/01 03:45:01;;;;;;;23.80;8.02;;;;;;;-1.80;44.60;102856.75;4980756;28;20036;-69
2022/03/01 03:47:26;;;;;;;25.38;9.38;;;;;;;-1.78;44.51;102858.47;4994004;28;20133;-69
2022/03/01 03:49:52;;;;;;;20.00;8.02;;;;;;;-1.77;44.84;102853.44;4993427;28;20962;-69
2022/03/01 03:52:17;;;;;;;17.50;7.25;;;;;;;-1.83;44.85;102846.34;4994749;28;20045;-73
2022/03/01 03:54:43;;;;;;;25.50;7.95;;;;;;;-1.82;44.62;102848.09;4979360;28;20034;-73
2022/03/01 03:57:08;;;;;;;20.90;7.15;;;;;;;-1.75;44.75;102845.81;4998060;28;20076;-73
2022/03/01 03:59:35;;;;;;;20.45;8.73;;;;;;;-1.75;44.81;102843.25;4968593;28;20029;-73
2022/03/01 04:02:02;;;;;;;21.98;7.82;;;;;;;-1.68;44.63;102860.66;4973283;28;20045;-73
2022/03/01 04:04:28;;;;;;;28.90;8.73;;;;;;;-1.72;44.64;102851.94;4996655;28;20225;-73
2022/03/01 04:06:53;;;;;;;21.00;7.80;;;;;;;-1.73;44.57;102849.28;4995206;28;20032;-72
2022/03/01 04:09:18;;;;;;;25.05;9.02;;;;;;;-1.71;44.40;102850.25;4996989;28;20056;-73
2022/03/01 04:11:44;;;;;;;22.83;7.22;;;;;;;-1.70;44.24;102841.75;4980812;28;20062;-73
2022/03/01 04:14:09;;;;;;;31.02;7.55;;;;;;;-1.55;44.06;102837.28;4992119;28;20060;-71
2022/03/01 04:16:35;;;;;;;20.80;8.80;;;;;;;-1.51;43.93;102834.03;4979502;28;20387;-72
2022/03/01 04:19:00;;;;;;;25.40;7.90;;;;;;;-1.53;44.08;102834.75;4994483;28;20059;-70
2022/03/01 04:21:27;;;;;;;18.65;7.65;;;;;;;-1.55;43.90;102829.59;4979727;28;20036;-70
2022/03/01 04:23:52;;;;;;;23.48;9.48;;;;;;;-1.51;43.98;102828.00;4974549;28;20601;-74
2022/03/01 04:26:18;;;;;;;26.85;9.52;;;;;;;-1.46;43.60;102829.97;4991989;28;20052;-74
2022/03/01 04:28:44;;;;;;;24.48;7.72;;;;;;;-1.40;43.63;102830.22;5000268;28;20395;-71
2022/03/01 04:31:10;;;;;;;24.50;7.05;;;;;;;-1.41;43.71;102830.16;4978615;28;20030;-72
2022/03/01 04:33:35;;;;;;;18.50;8.55;;;;;;;-1.40;43.74;102840.47;4995066;28;20053;-71
2022/03/01 04:36:02;;;;;;;19.30;8.07;;;;;;;-1.43;43.40;102835.19;4995267;28;20030;-73
2022/03/01 04:38:29;;;;;;;21.17;7.28;;;;;;;-1.34;43.59;102833.84;4995353;28;20053;-73
2022/03/01 04:40:55;;;;;;;20.50;7.35;;;;;;;-1.35;43.50;102830.41;4970677;28;20026;-73
2022/03/01 04:43:21;;;;;;;20.63;9.15;;;;;;;-1.34;43.38;102837.28;4978763;28;20235;-73
2022/03/01 04:45:47;;;;;;;23.23;7.55;;;;;;;-1.35;43.53;102830.41;4990127;28;20036;-72
2022/03/01 04:48:13;;;;;;;20.40;7.82;;;;;;;-1.43;43.49;102827.50;4995237;28;20105;-72
2022/03/01 04:50:38;;;;;;;19.02;7.50;;;;;;;-1.38;43.46;102826.00;4981322;28;20037;-71
2022/03/01 04:53:04;;;;;;;25.60;7.75;;;;;;;-1.32;43.33;102821.94;4989862;28;20532;-71
2022/03/01 04:55:30;;;;;;;20.08;6.72;;;;;;;-1.26;43.17;102829.91;4979433;28;20065;-72
2022/03/01 04:57:55;;;;;;;22.27;7.38;;;;;;;-1.22;43.28;102831.75;4995045;28;20491;-71
2022/03/01 05:00:21;;;;;;;15.98;6.30;;;;;;;-1.22;43.41;102832.66;4979281;28;20041;-70
2022/03/01 05:02:47;;;;;;;19.38;7.47;;;;;;;-1.23;42.92;102825.75;4991832;28;20042;-71
2022/03/01 05:05:14;;;;;;;17.45;8.30;;;;;;;-1.14;42.82;102824.38;4985791;28;20358;-71
2022/03/01 05:07:41;;;;;;;28.83;8.50;;;;;;;-1.26;43.09;102824.78;4974075;28;20420;-70
2022/03/01 05:10:08;;;;;;;21.40;8.20;;;;;;;-1.09;42.88;102822.88;4997289;28;20108;-71
2022/03/01 05:12:41;;;;;;;22.20;7.43;;;;;;;-1.10;42.83;102816.00;4993302;28;20077;-71
2022/03/01 05:15:07;;;;;;;23.10;7.00;;;;;;;-1.07;42.79;102819.53;4978577;28;20078;-70
2022/03/01 05:17:34;;;;;;;22.40;8.02;;;;;;;-1.10;43.10;102809.16;4991356;28;20571;-70
2022/03/01 05:20:01;;;;;;;21.85;7.90;;;;;;;-1.19;43.34;102814.81;4995718;28;20071;-74
2022/03/01 05:22:26;;;;;;;22.20;8.63;;;;;;;-1.10;42.93;102814.28;4994492;28;20069;-71
2022/03/01 05:24:52;;;;;;;20.52;7.45;;;;;;;-1.11;43.16;102815.09;4965723;28;20042;-71
2022/03/01 05:27:17;;;;;;;21.30;7.00;;;;;;;-1.03;43.08;102812.88;4977177;28;20049;-73
2022/03/01 05:29:43;;;;;;;22.63;8.50;;;;;;;-1.11;43.01;102820.22;4979263;28;20052;-73
2022/03/01 05:32:08;;;;;;;16.02;7.20;;;;;;;-0.98;43.02;102822.50;4993638;28;20042;-73
2022/03/01 05:34:34;;;;;;;16.52;7.22;;;;;;;-1.02;43.06;102822.31;4994495;28;20030;-74
2022/03/01 05:36:59;;;;;;;20.45;6.90;;;;;;;-1.06;42.90;102818.78;4986992;28;20221;-74
2022/03/01 05:39:24;;;;;;;19.02;6.68;;;;;;;-1.01;43.02;102827.53;5000089;28;20034;-74
2022/03/01 05:41:50;;;;;;;16.40;6.35;;;;;;;-1.06;43.05;102828.09;4998205;28;20033;-74
2022/03/01 05:44:16;;;;;;;18.20;7.45;;;;;;;-1.12;43.08;102823.63;4994551;28;20030;-73
2022/03/01 05:46:41;;;;;;;19.95;6.70;;;;;;;-1.24;43.31;102828.25;4984866;28;20033;-74
2022/03/01 05:49:07;;;;;;;20.90;7.25;;;;;;;-1.02;43.13;102828.34;4981531;28;20497;-74
2022/03/01 05:51:33;;;;;;;20.17;7.93;;;;;;;-0.92;42.80;102829.56;4994833;28;20029;-74
2022/03/01 05:53:58;;;;;;;19.77;7.95;;;;;;;-1.03;43.14;102838.56;4977575;28;20053;-74
2022/03/01 05:56:24;;;;;;;22.45;7.82;;;;;;;-1.01;43.10;102832.66;4980178;28;20038;-73
2022/03/01 05:58:49;;;;;;;26.02;8.32;;;;;;;-0.94;43.10;102827.78;4997683;28;20254;-73
2022/03/01 06:01:15;;;;;;;20.40;7.25;;;;;;;-0.98;43.02;102827.63;4982425;28;20042;-73
2022/03/01 06:03:40;;;;;;;25.77;7.43;;;;;;;-0.93;42.93;102824.38;4997494;28;20044;-73
2022/03/01 06:06:06;;;;;;;20.13;7.70;;;;;;;-0.95;43.14;102823.44;4980747;28;20068;-73
2022/03/01 06:08:32;;;;;;;22.58;7.45;;;;;;;-0.92;43.09;102831.28;4997841;28;20406;-72
2022/03/01 06:10:57;;;;;;;19.35;8.57;;;;;;;-0.91;43.13;102833.00;4980369;28;20157;-72
2022/03/01 06:13:23;;;;;;;22.98;7.80;;;;;;;-0.82;42.88;102828.22;4997297;28;20061;-72
2022/03/01 06:15:49;;;;;;;15.68;7.97;;;;;;;-0.80;42.76;102829.16;4980855;28;20053;-72
2022/03/01 06:18:15;;;;;;;24.35;8.00;;;;;;;-0.77;42.77;102826.75;4979251;28;20034;-71
2022/03/01 06:20:40;;;;;;;16.63;6.88;;;;;;;-0.78;43.04;102833.53;4997906;28;20067;-71
2022/03/01 06:23:06;;;;;;;24.30;7.72;;;;;;;-0.86;43.04;102828.94;4997690;28;20088;-71
2022/03/01 06:25:31;;;;;;;23.15;7.90;;;;;;;-0.90;43.30;102833.09;4997420;28;20030;-71
2022/03/01 06:27:57;;;;;;;26.83;8.57;;;;;;;-0.86;43.38;102836.63;4993711;28;20042;-71
2022/03/01 06:30:23;;;;;;;17.90;7.13;;;;;;;-0.73;43.15;102835.41;4985913;28;20125;-71
2022/03/01 06:32:49;;;;;;;22.27;7.68;;;;;;;-0.67;42.95;102841.66;4996388;28;20042;-72
2022/03/01 06:35:14;;;;;;;16.80;7.28;;;;;;;-0.62;43.14;102842.72;4998979;28;20034;-72
2022/03/01 06:37:40;;;;;;;19.50;7.47;;;;;;;-0.59;42.78;102842.84;4979889;28;20501;-71
2022/03/01 06:40:06;;;;;;;22.55;8.60;;;;;;;-0.53;42.59;102836.19;4998852;28;20612;-71
2022/03/01 06:42:33;;;;;;;18.40;6.57;;;;;;;-0.48;42.53;102839.78;4979147;28;20049;-71
2022/03/01 06:44:58;;;;;;;17.10;6.90;;;;;;;-0.47;42.84;102836.41;4984513;28;20165;-70
2022/03/01 06:47:24;;;;;;;21.95;6.82;;;;;;;-0.42;42.62;102842.59;4977693;28;20038;-71
2022/03/01 06:49:49;;;;;;;22.30;8.25;;;;;;;-0.39;42.57;102846.16;4994283;28;20188;-72
2022/03/01 06:52:15;;;;;;;19.88;7.68;;;;;;;-0.42;42.47;102840.03;4996304;28;20034;-71
2022/03/01 06:54:40;;;;;;;24.77;7.35;;;;;;;-0.39;42.41;102841.03;4996433;28;20482;-70
2022/03/01 06:57:06;;;;;;;15.40;8.18;;;;;;;-0.39;42.58;102842.72;4998669;28;20057;-71
2022/03/01 06:59:32;;;;;;;23.60;8.23;;;;;;;-0.36;42.57;102840.25;4997151;28;20067;-71
2022/03/01 07:01:58;;;;;;;18.20;7.72;;;;;;;-0.28;42.74;102846.56;4980102;28;20453;-70
2022/03/01 07:04:23;;;;;;;14.85;7.43;;;;;;;-0.25;42.73;102844.09;4996461;28;20057;-73
2022/03/01 07:06:49;;;;;;;18.23;7.28;;;;;;;-0.21;42.66;102850.25;4994816;28;20498;-73
2022/03/01 07:09:14;;;;;;;24.08;7.60;;;;;;;-0.00;42.44;102855.25;5000872;28;20283;-72
2022/03/01 07:11:40;;;;;;;23.35;8.25;;;;;;;0.11;42.28;102846.22;4979529;28;20061;-72
2022/03/01 07:14:06;;;;;;;23.90;8.95;;;;;;;0.16;42.00;102857.53;4996359;28;20531;-71
2022/03/01 07:16:31;;;;;;;30.23;9.18;;;;;;;0.28;42.02;102858.00;4980749;28;20113;-71
2022/03/01 07:18:57;;;;;;;20.02;8.65;;;;;;;0.33;41.45;102859.84;4995739;28;20131;-69
2022/03/01 07:21:22;;;;;;;20.17;7.30;;;;;;;0.28;41.57;102858.00;4997113;28;20483;-70
2022/03/01 07:23:48;;;;;;;21.63;7.82;;;;;;;0.37;41.54;102862.56;4998304;28;20057;-74
2022/03/01 07:26:14;;;;;;;19.95;7.47;;;;;;;0.50;41.19;102861.28;4981001;28;20026;-72
2022/03/01 07:28:39;;;;;;;23.33;7.88;;;;;;;0.70;41.14;102864.50;4993955;28;20558;-70
2022/03/01 07:31:05;;;;;;;23.15;8.48;;;;;;;1.07;41.06;102869.16;4995382;28;20526;-69
2022/03/01 07:33:31;;;;;;;23.23;8.40;;;;;;;1.60;40.53;102865.66;4998333;28;20095;-72
2022/03/01 07:35:56;;;;;;;21.83;8.35;;;;;;;1.94;39.13;102878.66;4999338;28;20037;-73
2022/03/01 07:38:22;;;;;;;22.58;7.03;;;;;;;2.51;38.50;102867.28;4978266;28;20034;-72
2022/03/01 07:40:47;;;;;;;19.73;8.18;;;;;;;3.00;37.00;102867.59;4981184;28;20122;-73
2022/03/01 07:43:13;;;;;;;20.58;7.53;;;;;;;2.73;35.88;102866.13;4977274;28;20786;-71
2022/03/01 07:45:38;;;;;;;19.10;7.40;;;;;;;4.54;35.04;102869.06;4994623;28;20344;-71
2022/03/01 07:48:04;;;;;;;19.60;8.00;;;;;;;5.60;32.87;102865.47;4990939;28;20034;-74
2022/03/01 07:50:31;;;;;;;22.55;8.88;;;;;;;6.91;31.78;102862.50;4996244;28;20025;-73
2022/03/01 07:52:57;;;;;;;18.45;8.02;;;;;;;8.81;27.18;102861.41;4975237;28;20046;-72
2022/03/01 07:55:23;;;;;;;18.77;8.88;;;;;;;9.29;26.32;102870.00;4998342;28;20441;-70
2022/03/01 07:57:49;;;;;;;15.68;7.10;;;;;;;10.21;24.77;102861.78;4994779;28;20046;-69
2022/03/01 08:00:15;;;;;;;19.65;7.43;;;;;;;8.93;26.05;102869.22;5001605;28;20080;-71
2022/03/01 08:02:42;;;;;;;17.77;8.18;;;;;;;9.40;25.67;102854.31;4994643;28;20034;-70
2022/03/01 08:05:09;;;;;;;16.75;8.85;;;;;;;7.73;26.59;102856.03;4993998;28;20061;-70
2022/03/01 08:07:35;;;;;;;21.42;8.10;;;;;;;5.78;30.00;102866.56;4994685;28;20047;-71
2022/03/01 08:10:01;;;;;;;22.33;10.27;;;;;;;4.98;31.46;102873.25;4978464;28;20033;-70
2022/03/01 08:12:27;;;;;;;21.08;7.28;;;;;;;3.47;34.59;102880.78;4995698;28;20033;-70
2022/03/01 08:14:52;;;;;;;16.35;8.15;;;;;;;3.79;34.63;102875.41;4993134;28;20064;-69
2022/03/01 08:17:19;;;;;;;15.65;8.15;;;;;;;4.01;34.79;102872.41;4993805;28;20827;-70
2022/03/01 08:19:47;;;;;;;17.25;7.70;;;;;;;3.67;34.73;102877.72;4976485;28;20034;-71
2022/03/01 08:22:12;;;;;;;20.45;9.00;;;;;;;3.82;34.65;102872.88;4991860;28;20045;-70
2022/03/01 08:24:38;;;;;;;18.50;8.55;;;;;;;4.58;33.33;102867.38;4980316;28;20087;-70
2022/03/01 08:27:04;;;;;;;21.35;8.00;;;;;;;4.57;33.22;102866.53;4970824;28;20061;-70
2022/03/01 08:29:30;;;;;;;21.60;7.18;;;;;;;4.52;32.89;102869.88;4997852;28;20144;-70
2022/03/01 08:31:56;;;;;;;19.73;8.07;;;;;;;4.18;33.43;102866.69;4977625;28;20034;-70
2022/03/01 08:34:22;;;;;;;17.13;9.82;;;;;;;3.51;34.55;102867.06;4995951;28;20610;-71
2022/03/01 08:36:48;;;;;;;18.25;7.95;;;;;;;3.46;34.98;102865.22;4993503;28;20030;-70
2022/03/01 08:39:14;;;;;;;22.15;9.23;;;;;;;3.32;35.40;102876.16;4996950;28;20104;-70
2022/03/01 08:41:39;;;;;;;19.75;7.32;;;;;;;3.66;35.62;102873.41;4995235;28;20030;-71
2022/03/01 08:44:05;;;;;;;21.83;7.88;;;;;;;5.96;31.01;102874.56;4963354;28;20168;-71
2022/03/01 08:46:31;;;;;;;16.83;7.25;;;;;;;8.34;28.20;102868.31;4992242;28;20057;-70
2022/03/01 08:48:57;;;;;;;20.63;6.63;;;;;;;8.06;28.49;102862.19;4982757;28;20067;-71
2022/03/01 08:51:23;;;;;;;21.23;8.27;;;;;;;8.96;26.26;102864.00;4974615;28;20477;-71
2022/03/01 08:53:53;;;;;;;18.23;8.95;;;;;;;9.51;25.98;102867.34;4992167;28;20073;-71
2022/03/01 08:56:20;;;;;;;19.00;6.95;;;;;;;10.36;24.22;102865.16;4989046;28;20038;-72
2022/03/01 08:58:47;;;;;;;15.80;7.65;;;;;;;10.34;24.78;102872.13;4990305;28;20900;-70
2022/03/01 09:01:14;;;;;;;14.05;7.03;;;;;;;9.43;25.57;102874.31;4990532;28;20038;-69
2022/03/01 09:03:41;;;;;;;18.05;8.15;;;;;;;10.11;25.32;102869.69;4989915;28;21032;-69
2022/03/01 09:06:07;;;;;;;19.85;8.20;;;;;;;9.99;25.11;102871.50;4991922;28;20607;-70
2022/03/01 09:08:34;;;;;;;19.15;8.32;;;;;;;9.13;26.80;102876.16;4991829;28;20133;-70
2022/03/01 09:11:00;;;;;;;21.70;9.30;;;;;;;9.93;26.55;102881.97;4976102;28;20914;-68
2022/03/01 09:13:26;;;;;;;17.55;8.55;;;;;;;9.71;25.70;102883.78;4990360;28;20048;-69
2022/03/01 09:15:52;;;;;;;19.88;8.90;;;;;;;7.65;28.09;102878.56;4971211;28;20123;-69
2022/03/01 09:18:17;;;;;;;17.25;7.97;;;;;;;9.70;26.39;102871.63;4958888;28;20638;-71
2022/03/01 09:20:43;;;;;;;16.15;8.68;;;;;;;8.93;26.82;102873.56;4973440;28;20038;-69
2022/03/01 09:23:08;;;;;;;21.88;10.15;;;;;;;9.40;27.16;102880.41;4994356;28;20049;-70
2022/03/01 09:25:34;;;;;;;18.92;9.43;;;;;;;9.15;27.45;102877.00;4967337;28;20657;-68
2022/03/01 09:28:00;;;;;;;15.23;7.80;;;;;;;8.55;27.92;102872.69;4991155;28;20037;-70
2022/03/01 09:30:25;;;;;;;20.25;8.80;;;;;;;7.72;28.82;102877.72;4994623;28;20029;-69
2022/03/01 09:32:51;;;;;;;18.35;9.23;;;;;;;6.88;29.86;102880.66;4990096;28;20050;-70
2022/03/01 09:35:17;;;;;;;20.58;10.20;;;;;;;6.48;31.11;102869.94;4975722;28;20047;-69
2022/03/01 09:37:43;;;;;;;15.48;8.23;;;;;;;6.67;31.10;102863.16;4990640;28;20588;-70
2022/03/01 09:40:11;;;;;;;24.25;9.43;;;;;;;6.67;31.21;102870.09;4989606;28;20625;-69
2022/03/01 09:42:38;;;;;;;20.52;8.45;;;;;;;6.95;31.54;102859.91;4988560;28;20045;-70
2022/03/01 09:45:06;;;;;;;22.38;7.82;;;;;;;6.19;31.82;102851.44;4993264;28;20037;-70
2022/03/01 09:47:31;;;;;;;16.42;8.27;;;;;;;6.27;31.31;102854.13;4974878;28;20034;-69
2022/03/01 09:49:57;;;;;;;17.67;8.25;;;;;;;6.56;31.01;102871.75;4989527;28;20060;-71
2022/03/01 09:52:23;;;;;;;21.65;8.63;;;;;;;6.24;31.67;102869.69;4971138;28;20508;-70
2022/03/01 09:54:50;;;;;;;15.57;6.88;;;;;;;6.11;31.44;102873.00;4987756;28;20034;-71
2022/03/01 09:57:17;;;;;;;17.55;8.60;;;;;;;6.46;31.37;102868.16;4976732;28;20052;-68
2022/03/01 09:59:43;;;;;;;17.25;7.93;;;;;;;6.55;32.21;102865.69;4990584;28;20932;-70
2022/03/01 10:02:09;;;;;;;18.80;8.48;;;;;;;5.91;32.38;102873.66;4990838;28;20141;-70
2022/03/01 10:04:58;;;;;;;18.25;8.38;;;;;;;6.55;31.45;102872.56;4988784;28;20833;-70
2022/03/01 10:07:26;;;;;;;19.27;8.63;;;;;;;5.42;32.91;102879.09;4994598;28;20184;-71
2022/03/01 10:09:52;;;;;;;15.80;7.28;;;;;;;6.46;32.14;102875.97;4991598;28;20042;-70
2022/03/01 10:12:28;;;;;;;15.68;7.25;;;;;;;7.42;30.76;102882.72;4991043;28;20041;-70
2022/03/01 10:14:59;;;;;;;18.48;8.85;;;;;;;7.68;30.44;102880.28;4991199;28;20045;-71
2022/03/01 10:17:46;;;;;;;19.93;10.27;;;;;;;6.95;31.26;102880.69;4988174;28;20049;-70
2022/03/01 10:20:14;;;;;;;15.82;8.20;;;;;;;7.38;30.51;102876.66;4975168;28;20038;-69
2022/03/01 10:22:50;;;;;;;15.68;8.77;;;;;;;7.71;30.67;102870.78;4993130;28;20072;-69
2022/03/01 10:25:19;;;;;;;17.15;7.72;;;;;;;7.27;31.23;102883.53;4993967;28;20490;-71
2022/03/01 10:27:47;;;;;;;20.58;8.65;;;;;;;7.32;30.40;102887.03;4993704;28;20128;-72
2022/03/01 10:30:25;;;;;;;17.25;8.65;;;;;;;6.76;31.17;102880.56;4996511;28;20029;-70
2022/03/01 10:33:01;;;;;;;17.42;8.63;;;;;;;7.58;31.20;102874.19;4978902;28;20104;-71
2022/03/01 10:35:27;;;;;;;15.77;7.93;;;;;;;8.21;30.78;102878.72;5000052;28;20858;-71
2022/03/01 10:37:52;;;;;;;18.05;9.43;;;;;;;8.05;30.11;102883.03;4978478;28;20046;-70
2022/03/01 10:40:20;;;;;;;17.80;8.68;;;;;;;7.23;31.17;102881.78;4967264;28;20044;-71
2022/03/01 10:43:00;;;;;;;17.65;8.73;;;;;;;8.06;31.00;102883.03;4977934;28;20045;-71
2022/03/01 10:45:36;;;;;;;17.00;8.85;;;;;;;7.83;30.62;102879.50;4998177;28;20030;-71
2022/03/01 10:48:03;;;;;;;16.13;7.88;;;;;;;7.73;30.84;102876.88;4993562;28;20052;-69
2022/03/01 10:50:28;;;;;;;18.55;7.90;;;;;;;7.48;30.95;102878.44;4994666;28;20113;-69
2022/03/01 10:52:54;;;;;;;15.60;8.48;;;;;;;7.47;31.18;102881.91;4994709;28;20582;-70
2022/03/01 10:55:33;;;;;;;17.45;8.23;;;;;;;7.79;30.77;102875.13;4982880;28;20038;-70
2022/03/01 10:58:06;;;;;;;19.02;8.77;;;;;;;7.31;30.96;102887.88;4976443;28;20261;-70
2022/03/01 11:00:34;;;;;;;17.90;8.68;;;;;;;7.17;30.98;102885.19;4995731;28;20132;-70
2022/03/01 11:03:01;;;;;;;17.75;9.20;;;;;;;6.36;32.60;102888.00;4993051;28;20048;-71
2022/03/01 11:05:30;;;;;;;19.20;8.55;;;;;;;7.05;30.71;102880.78;4962282;28;20095;-70
2022/03/01 11:08:01;;;;;;;20.10;8.85;;;;;;;7.01;31.03;102875.56;4970769;28;20472;-69
2022/03/01 11:10:29;;;;;;;17.27;8.23;;;;;;;7.00;31.39;102872.09;4998279;28;20042;-71
2022/03/01 11:12:57;;;;;;;19.30;8.40;;;;;;;7.28;31.12;102872.25;4974122;28;20497;-70
2022/03/01 11:16:05;;;;;;;20.58;9.10;;;;;;;7.28;31.26;102877.47;4997568;28;20033;-73